Terminal Aerodrome Forecast
Issued by NWS Atlanta, GA

Home | Current Version | Previous Version | Text Only | Print | Product List | Glossary On
Versions: 1 2 3 4 5 6 7 8 9 10 11 12 13 14 15 16 17 18 19 20 21 22 23 24 25
000
FTUS42 KFFC 101120
TAFCSG
TAF
KCSG 101120Z 1012/1112 08003KT P6SM SCT060
     FM101300 VRB03KT P6SM FEW100
     FM102000 29005KT P6SM VCSH BKN050
      TEMPO 1020/1024 VRB15G25KT 3SM TSRA BKN025CB
     FM110200 23003KT P6SM SCT040 BKN150=

USA.gov is the U.S. government's official web portal to all federal, state and local government web resources and services.